sensor_id;sensor_type;location;lat;lon;timestamp;pressure;altitude;pressure_sealevel;temperature;humidity
22333;BME280;11334;36.986;-121.936;2022-12-18T00:00:47;101209.22;;;15.22;50.56
22333;BME280;11334;36.986;-121.936;2022-12-18T00:03:16;101221.09;;;15.19;50.46
22333;BME280;11334;36.986;-121.936;2022-12-18T00:05:47;101220.25;;;15.19;50.63
22333;BME280;11334;36.986;-121.936;2022-12-18T00:08:13;101218.97;;;15.15;50.95
22333;BME280;11334;36.986;-121.936;2022-12-18T00:10:40;101206.97;;;15.03;51.09
22333;BME280;11334;36.986;-121.936;2022-12-18T00:13:06;101219.66;;;15.09;51.14
22333;BME280;11334;36.986;-121.936;2022-12-18T00:15:37;101218.97;;;15.07;51.65
22333;BME280;11334;36.986;-121.936;2022-12-18T00:18:03;101225.50;;;15.05;51.60
22333;BME280;11334;36.986;-121.936;2022-12-18T00:20:30;101218.00;;;15.00;51.71
22333;BME280;11334;36.986;-121.936;2022-12-18T00:22:56;101195.22;;;14.90;51.86
22333;BME280;11334;36.986;-121.936;2022-12-18T00:25:23;101211.53;;;14.95;51.96
22333;BME280;11334;36.986;-121.936;2022-12-18T00:27:49;101210.19;;;14.91;52.01
22333;BME280;11334;36.986;-121.936;2022-12-18T00:30:15;101218.72;;;14.86;52.28
22333;BME280;11334;36.986;-121.936;2022-12-18T00:32:41;101200.91;;;14.79;52.39
22333;BME280;11334;36.986;-121.936;2022-12-18T00:35:08;101209.91;;;14.78;52.51
22333;BME280;11334;36.986;-121.936;2022-12-18T00:37:34;101202.44;;;14.74;52.71
22333;BME280;11334;36.986;-121.936;2022-12-18T00:40:01;101211.59;;;14.71;53.35
22333;BME280;11334;36.986;-121.936;2022-12-18T00:42:28;101208.63;;;14.66;53.58
22333;BME280;11334;36.986;-121.936;2022-12-18T00:45:12;101214.81;;;14.59;54.31
22333;BME280;11334;36.986;-121.936;2022-12-18T00:47:39;101214.84;;;14.51;54.72
22333;BME280;11334;36.986;-121.936;2022-12-18T00:50:06;101214.84;;;14.51;54.94
22333;BME280;11334;36.986;-121.936;2022-12-18T00:52:32;101219.03;;;14.46;55.08
22333;BME280;11334;36.986;-121.936;2022-12-18T00:54:58;101214.84;;;14.35;55.28
22333;BME280;11334;36.986;-121.936;2022-12-18T00:57:24;101215.19;;;14.32;56.11
22333;BME280;11334;36.986;-121.936;2022-12-18T00:59:50;101215.69;;;14.28;56.94
22333;BME280;11334;36.986;-121.936;2022-12-18T01:02:17;101208.88;;;14.18;57.36
22333;BME280;11334;36.986;-121.936;2022-12-18T01:04:43;101206.41;;;14.16;57.87
22333;BME280;11334;36.986;-121.936;2022-12-18T01:07:09;101220.56;;;14.09;58.13
22333;BME280;11334;36.986;-121.936;2022-12-18T01:09:35;101219.91;;;13.99;58.69
22333;BME280;11334;36.986;-121.936;2022-12-18T01:12:02;101214.34;;;13.92;58.92
22333;BME280;11334;36.986;-121.936;2022-12-18T01:14:28;101204.88;;;13.82;58.93
22333;BME280;11334;36.986;-121.936;2022-12-18T01:16:54;101222.00;;;13.80;59.05
22333;BME280;11334;36.986;-121.936;2022-12-18T01:19:20;101220.31;;;13.71;59.50
22333;BME280;11334;36.986;-121.936;2022-12-18T01:21:46;101222.66;;;13.66;59.72
22333;BME280;11334;36.986;-121.936;2022-12-18T01:24:13;101218.00;;;13.60;59.96
22333;BME280;11334;36.986;-121.936;2022-12-18T01:26:39;101220.66;;;13.52;60.10
22333;BME280;11334;36.986;-121.936;2022-12-18T01:29:05;101228.44;;;13.46;60.04
22333;BME280;11334;36.986;-121.936;2022-12-18T01:31:33;101214.44;;;13.36;60.41
22333;BME280;11334;36.986;-121.936;2022-12-18T01:34:04;101219.09;;;13.26;60.75
22333;BME280;11334;36.986;-121.936;2022-12-18T01:36:33;101225.75;;;13.22;60.67
22333;BME280;11334;36.986;-121.936;2022-12-18T01:39:02;101235.34;;;13.15;60.95
22333;BME280;11334;36.986;-121.936;2022-12-18T01:41:30;101214.19;;;12.98;60.59
22333;BME280;11334;36.986;-121.936;2022-12-18T01:49:56;101237.38;;;12.80;61.69
22333;BME280;11334;36.986;-121.936;2022-12-18T01:52:25;101227.22;;;12.76;62.59
22333;BME280;11334;36.986;-121.936;2022-12-18T01:54:53;101235.13;;;12.68;62.24
22333;BME280;11334;36.986;-121.936;2022-12-18T01:57:20;101224.44;;;12.60;62.60
22333;BME280;11334;36.986;-121.936;2022-12-18T01:59:50;101228.41;;;12.56;62.51
22333;BME280;11334;36.986;-121.936;2022-12-18T02:02:19;101232.34;;;12.52;62.42
22333;BME280;11334;36.986;-121.936;2022-12-18T02:04:46;101237.16;;;12.49;62.21
22333;BME280;11334;36.986;-121.936;2022-12-18T02:10:24;101219.00;;;12.19;64.05
22333;BME280;11334;36.986;-121.936;2022-12-18T02:13:27;101236.31;;;12.23;63.79
22333;BME280;11334;36.986;-121.936;2022-12-18T02:19:00;101227.00;;;12.02;63.63
22333;BME280;11334;36.986;-121.936;2022-12-18T02:21:55;101237.94;;;11.99;63.71
22333;BME280;11334;36.986;-121.936;2022-12-18T02:24:35;101241.50;;;11.90;64.03
22333;BME280;11334;36.986;-121.936;2022-12-18T02:27:06;101239.41;;;11.76;64.77
22333;BME280;11334;36.986;-121.936;2022-12-18T02:32:20;101226.72;;;11.70;65.24
22333;BME280;11334;36.986;-121.936;2022-12-18T02:34:49;101234.31;;;11.66;65.15
22333;BME280;11334;36.986;-121.936;2022-12-18T02:37:18;101230.31;;;11.62;65.42
22333;BME280;11334;36.986;-121.936;2022-12-18T02:39:47;101208.91;;;11.46;66.05
22333;BME280;11334;36.986;-121.936;2022-12-18T02:42:15;101239.69;;;11.56;66.18
22333;BME280;11334;36.986;-121.936;2022-12-18T02:44:48;101229.31;;;11.45;66.58
22333;BME280;11334;36.986;-121.936;2022-12-18T02:47:18;101230.59;;;11.41;66.30
22333;BME280;11334;36.986;-121.936;2022-12-18T02:52:41;101226.16;;;11.33;67.17
22333;BME280;11334;36.986;-121.936;2022-12-18T02:55:40;101226.84;;;11.35;66.96
22333;BME280;11334;36.986;-121.936;2022-12-18T02:58:20;101218.81;;;11.27;66.07
22333;BME280;11334;36.986;-121.936;2022-12-18T03:00:53;101221.34;;;11.19;67.15
22333;BME280;11334;36.986;-121.936;2022-12-18T03:06:02;101227.50;;;11.19;67.00
22333;BME280;11334;36.986;-121.936;2022-12-18T03:08:38;101224.47;;;11.14;66.82
22333;BME280;11334;36.986;-121.936;2022-12-18T03:11:08;101229.22;;;11.11;67.21
22333;BME280;11334;36.986;-121.936;2022-12-18T03:14:01;101224.66;;;11.03;67.65
22333;BME280;11334;36.986;-121.936;2022-12-18T03:16:30;101224.44;;;10.97;67.29
22333;BME280;11334;36.986;-121.936;2022-12-18T03:18:58;101230.56;;;10.98;66.98
22333;BME280;11334;36.986;-121.936;2022-12-18T03:21:38;101232.38;;;10.97;67.27
22333;BME280;11334;36.986;-121.936;2022-12-18T03:24:08;101235.91;;;10.88;67.03
22333;BME280;11334;36.986;-121.936;2022-12-18T03:26:39;101233.56;;;10.85;66.77
22333;BME280;11334;36.986;-121.936;2022-12-18T03:29:11;101232.56;;;10.86;67.28
22333;BME280;11334;36.986;-121.936;2022-12-18T03:31:41;101228.28;;;10.76;67.00
22333;BME280;11334;36.986;-121.936;2022-12-18T03:34:17;101241.25;;;10.79;67.43
22333;BME280;11334;36.986;-121.936;2022-12-18T03:36:45;101233.88;;;10.73;66.97
22333;BME280;11334;36.986;-121.936;2022-12-18T03:39:13;101235.16;;;10.69;67.46
22333;BME280;11334;36.986;-121.936;2022-12-18T03:41:55;101236.84;;;10.70;67.52
22333;BME280;11334;36.986;-121.936;2022-12-18T03:45:42;101232.94;;;10.65;67.56
22333;BME280;11334;36.986;-121.936;2022-12-18T03:47:42;101236.03;;;10.60;67.74
22333;BME280;11334;36.986;-121.936;2022-12-18T03:52:54;101222.66;;;10.52;68.25
22333;BME280;11334;36.986;-121.936;2022-12-18T03:55:23;101229.78;;;10.52;67.76
22333;BME280;11334;36.986;-121.936;2022-12-18T03:57:52;101229.41;;;10.38;68.95
22333;BME280;11334;36.986;-121.936;2022-12-18T04:00:19;101221.44;;;10.38;69.39
22333;BME280;11334;36.986;-121.936;2022-12-18T04:02:52;101223.13;;;10.39;69.08
22333;BME280;11334;36.986;-121.936;2022-12-18T04:05:19;101234.97;;;10.44;68.92
22333;BME280;11334;36.986;-121.936;2022-12-18T04:07:48;101228.44;;;10.39;68.53
22333;BME280;11334;36.986;-121.936;2022-12-18T04:10:16;101219.38;;;10.32;68.40
22333;BME280;11334;36.986;-121.936;2022-12-18T04:12:43;101233.75;;;10.29;68.63
22333;BME280;11334;36.986;-121.936;2022-12-18T04:15:10;101233.88;;;10.28;68.61
22333;BME280;11334;36.986;-121.936;2022-12-18T04:17:38;101205.94;;;10.16;68.42
22333;BME280;11334;36.986;-121.936;2022-12-18T04:20:05;101226.25;;;10.15;69.23
22333;BME280;11334;36.986;-121.936;2022-12-18T04:22:31;101222.22;;;10.11;69.68
22333;BME280;11334;36.986;-121.936;2022-12-18T04:24:57;101222.53;;;10.09;69.43
22333;BME280;11334;36.986;-121.936;2022-12-18T04:27:23;101225.00;;;10.10;69.17
22333;BME280;11334;36.986;-121.936;2022-12-18T04:29:50;101193.97;;;9.84;69.01
22333;BME280;11334;36.986;-121.936;2022-12-18T04:32:16;101222.25;;;9.93;69.45
22333;BME280;11334;36.986;-121.936;2022-12-18T04:34:42;101224.47;;;9.97;69.76
22333;BME280;11334;36.986;-121.936;2022-12-18T04:37:08;101231.28;;;9.90;69.77
22333;BME280;11334;36.986;-121.936;2022-12-18T04:39:35;101221.78;;;9.88;69.26
22333;BME280;11334;36.986;-121.936;2022-12-18T04:42:01;101226.13;;;9.79;69.83
22333;BME280;11334;36.986;-121.936;2022-12-18T04:44:27;101233.25;;;9.79;69.58
22333;BME280;11334;36.986;-121.936;2022-12-18T04:46:53;101237.69;;;9.78;69.93
22333;BME280;11334;36.986;-121.936;2022-12-18T04:49:20;101229.75;;;9.69;69.57
22333;BME280;11334;36.986;-121.936;2022-12-18T04:51:46;101229.47;;;9.63;70.20
22333;BME280;11334;36.986;-121.936;2022-12-18T04:54:12;101230.75;;;9.59;70.49
22333;BME280;11334;36.986;-121.936;2022-12-18T04:56:39;101239.50;;;9.59;70.58
22333;BME280;11334;36.986;-121.936;2022-12-18T04:59:05;101235.03;;;9.60;70.10
22333;BME280;11334;36.986;-121.936;2022-12-18T05:01:31;101236.28;;;9.56;70.19
22333;BME280;11334;36.986;-121.936;2022-12-18T05:03:57;101233.50;;;9.57;70.47
22333;BME280;11334;36.986;-121.936;2022-12-18T05:06:24;101236.16;;;9.57;70.07
22333;BME280;11334;36.986;-121.936;2022-12-18T05:08:50;101234.91;;;9.52;70.19
22333;BME280;11334;36.986;-121.936;2022-12-18T05:11:16;101231.41;;;9.42;70.04
22333;BME280;11334;36.986;-121.936;2022-12-18T05:13:44;101237.38;;;9.35;70.68
22333;BME280;11334;36.986;-121.936;2022-12-18T05:16:11;101227.34;;;9.29;71.05
22333;BME280;11334;36.986;-121.936;2022-12-18T05:18:38;101243.88;;;9.21;71.38
22333;BME280;11334;36.986;-121.936;2022-12-18T05:21:04;101240.13;;;9.24;71.56
22333;BME280;11334;36.986;-121.936;2022-12-18T05:23:31;101242.66;;;9.25;70.82
22333;BME280;11334;36.986;-121.936;2022-12-18T05:25:59;101237.66;;;9.22;71.48
22333;BME280;11334;36.986;-121.936;2022-12-18T05:28:27;101235.72;;;9.24;71.16
22333;BME280;11334;36.986;-121.936;2022-12-18T05:30:59;101239.59;;;9.20;71.35
22333;BME280;11334;36.986;-121.936;2022-12-18T05:33:28;101240.38;;;9.12;71.41
22333;BME280;11334;36.986;-121.936;2022-12-18T05:35:57;101240.53;;;9.10;72.07
22333;BME280;11334;36.986;-121.936;2022-12-18T05:38:25;101235.78;;;9.04;71.91
22333;BME280;11334;36.986;-121.936;2022-12-18T05:40:53;101249.25;;;9.01;72.39
22333;BME280;11334;36.986;-121.936;2022-12-18T05:43:20;101206.78;;;8.84;72.31
22333;BME280;11334;36.986;-121.936;2022-12-18T05:45:50;101234.66;;;9.07;71.89
22333;BME280;11334;36.986;-121.936;2022-12-18T05:48:17;101229.09;;;9.00;71.74
22333;BME280;11334;36.986;-121.936;2022-12-18T05:50:45;101199.69;;;8.75;71.91
22333;BME280;11334;36.986;-121.936;2022-12-18T05:53:13;101232.38;;;8.83;73.07
22333;BME280;11334;36.986;-121.936;2022-12-18T05:55:41;101208.06;;;8.80;72.63
22333;BME280;11334;36.986;-121.936;2022-12-18T05:58:08;101226.13;;;8.84;72.55
22333;BME280;11334;36.986;-121.936;2022-12-18T06:00:37;101219.28;;;8.73;72.32
22333;BME280;11334;36.986;-121.936;2022-12-18T06:03:06;101220.91;;;8.64;72.92
22333;BME280;11334;36.986;-121.936;2022-12-18T06:05:37;101229.25;;;8.69;72.54
22333;BME280;11334;36.986;-121.936;2022-12-18T06:08:03;101237.19;;;8.69;72.97
22333;BME280;11334;36.986;-121.936;2022-12-18T06:10:30;101242.34;;;8.71;72.70
22333;BME280;11334;36.986;-121.936;2022-12-18T06:12:56;101243.91;;;8.73;72.54
22333;BME280;11334;36.986;-121.936;2022-12-18T06:15:22;101239.53;;;8.63;73.02
22333;BME280;11334;36.986;-121.936;2022-12-18T06:17:49;101234.09;;;8.55;73.09
22333;BME280;11334;36.986;-121.936;2022-12-18T06:20:15;101231.09;;;8.39;74.46
22333;BME280;11334;36.986;-121.936;2022-12-18T06:22:41;101226.38;;;8.43;74.63
22333;BME280;11334;36.986;-121.936;2022-12-18T06:25:08;101217.94;;;8.49;73.88
22333;BME280;11334;36.986;-121.936;2022-12-18T06:27:34;101207.50;;;8.47;73.58
22333;BME280;11334;36.986;-121.936;2022-12-18T06:30:01;101197.03;;;8.36;73.42
22333;BME280;11334;36.986;-121.936;2022-12-18T06:32:27;101216.28;;;8.48;73.83
22333;BME280;11334;36.986;-121.936;2022-12-18T06:34:54;101216.72;;;8.52;73.91
22333;BME280;11334;36.986;-121.936;2022-12-18T06:37:21;101207.53;;;8.56;73.58
22333;BME280;11334;36.986;-121.936;2022-12-18T06:39:52;101215.34;;;8.58;72.75
22333;BME280;11334;36.986;-121.936;2022-12-18T06:42:18;101192.13;;;8.32;72.66
22333;BME280;11334;36.986;-121.936;2022-12-18T06:44:45;101205.00;;;8.46;72.55
22333;BME280;11334;36.986;-121.936;2022-12-18T06:47:11;101222.13;;;8.51;72.77
22333;BME280;11334;36.986;-121.936;2022-12-18T06:49:37;101217.22;;;8.47;72.64
22333;BME280;11334;36.986;-121.936;2022-12-18T06:52:03;101227.22;;;8.43;73.24
22333;BME280;11334;36.986;-121.936;2022-12-18T06:54:29;101224.13;;;8.38;73.52
22333;BME280;11334;36.986;-121.936;2022-12-18T06:56:56;101217.44;;;8.34;73.33
22333;BME280;11334;36.986;-121.936;2022-12-18T06:59:22;101229.53;;;8.37;73.20
22333;BME280;11334;36.986;-121.936;2022-12-18T07:01:48;101230.13;;;8.40;72.95
22333;BME280;11334;36.986;-121.936;2022-12-18T07:04:14;101232.88;;;8.39;73.36
22333;BME280;11334;36.986;-121.936;2022-12-18T07:06:41;101234.38;;;8.32;73.16
22333;BME280;11334;36.986;-121.936;2022-12-18T07:09:07;101234.53;;;8.30;73.16
22333;BME280;11334;36.986;-121.936;2022-12-18T07:11:33;101234.53;;;8.30;73.44
22333;BME280;11334;36.986;-121.936;2022-12-18T07:13:59;101234.91;;;8.26;73.23
22333;BME280;11334;36.986;-121.936;2022-12-18T07:16:26;101226.53;;;8.21;73.29
22333;BME280;11334;36.986;-121.936;2022-12-18T07:18:54;101229.03;;;8.22;73.79
22333;BME280;11334;36.986;-121.936;2022-12-18T07:21:22;101236.13;;;8.22;72.98
22333;BME280;11334;36.986;-121.936;2022-12-18T07:23:51;101216.81;;;8.01;73.70
22333;BME280;11334;36.986;-121.936;2022-12-18T07:26:19;101228.19;;;8.02;74.05
22333;BME280;11334;36.986;-121.936;2022-12-18T07:28:46;101228.63;;;7.87;74.90
22333;BME280;11334;36.986;-121.936;2022-12-18T07:31:19;101228.75;;;7.85;74.74
22333;BME280;11334;36.986;-121.936;2022-12-18T07:33:46;101227.72;;;7.77;75.26
22333;BME280;11334;36.986;-121.936;2022-12-18T07:36:13;101224.13;;;7.78;75.61
22333;BME280;11334;36.986;-121.936;2022-12-18T07:38:40;101234.38;;;7.91;75.12
22333;BME280;11334;36.986;-121.936;2022-12-18T07:41:11;101236.19;;;7.91;74.79
22333;BME280;11334;36.986;-121.936;2022-12-18T07:43:38;101232.56;;;7.92;74.39
22333;BME280;11334;36.986;-121.936;2022-12-18T07:46:06;101209.34;;;7.86;74.58
22333;BME280;11334;36.986;-121.936;2022-12-18T07:48:32;101225.19;;;7.86;74.01
22333;BME280;11334;36.986;-121.936;2022-12-18T07:51:03;101214.22;;;7.90;73.71
22333;BME280;11334;36.986;-121.936;2022-12-18T07:53:30;101214.38;;;7.89;73.70
22333;BME280;11334;36.986;-121.936;2022-12-18T07:55:58;101198.19;;;7.83;73.66
22333;BME280;11334;36.986;-121.936;2022-12-18T07:58:25;101208.63;;;7.84;74.29
22333;BME280;11334;36.986;-121.936;2022-12-18T08:00:54;101210.56;;;7.82;74.42
22333;BME280;11334;36.986;-121.936;2022-12-18T08:03:20;101200.38;;;7.78;74.38
22333;BME280;11334;36.986;-121.936;2022-12-18T08:05:49;101217.91;;;7.79;74.13
22333;BME280;11334;36.986;-121.936;2022-12-18T08:08:16;101181.81;;;7.59;74.55
22333;BME280;11334;36.986;-121.936;2022-12-18T08:10:42;101211.75;;;7.78;74.19
22333;BME280;11334;36.986;-121.936;2022-12-18T08:13:08;101205.22;;;7.73;74.41
22333;BME280;11334;36.986;-121.936;2022-12-18T08:15:34;101203.09;;;7.67;74.00
22333;BME280;11334;36.986;-121.936;2022-12-18T08:18:00;101207.28;;;7.69;73.97
22333;BME280;11334;36.986;-121.936;2022-12-18T08:20:27;101209.19;;;7.67;73.99
22333;BME280;11334;36.986;-121.936;2022-12-18T08:22:53;101208.47;;;7.65;74.19
22333;BME280;11334;36.986;-121.936;2022-12-18T08:25:19;101197.81;;;7.67;74.57
22333;BME280;11334;36.986;-121.936;2022-12-18T08:27:46;101204.91;;;7.66;74.60
22333;BME280;11334;36.986;-121.936;2022-12-18T08:30:12;101200.94;;;7.61;74.88
22333;BME280;11334;36.986;-121.936;2022-12-18T08:32:38;101181.34;;;7.54;74.91
22333;BME280;11334;36.986;-121.936;2022-12-18T08:35:05;101203.59;;;7.61;74.46
22333;BME280;11334;36.986;-121.936;2022-12-18T08:37:31;101148.53;;;7.27;75.16
22333;BME280;11334;36.986;-121.936;2022-12-18T08:39:57;101194.09;;;7.38;75.87
22333;BME280;11334;36.986;-121.936;2022-12-18T08:42:24;101182.63;;;7.39;75.52
22333;BME280;11334;36.986;-121.936;2022-12-18T08:45:08;101194.56;;;7.43;74.74
22333;BME280;11334;36.986;-121.936;2022-12-18T08:47:35;101184.78;;;7.34;75.47
22333;BME280;11334;36.986;-121.936;2022-12-18T08:50:01;101192.97;;;7.31;76.10
22333;BME280;11334;36.986;-121.936;2022-12-18T08:52:27;101195.34;;;7.23;76.31
22333;BME280;11334;36.986;-121.936;2022-12-18T08:54:53;101194.63;;;7.32;75.46
22333;BME280;11334;36.986;-121.936;2022-12-18T08:57:20;101196.69;;;7.18;76.53
22333;BME280;11334;36.986;-121.936;2022-12-18T08:59:46;101206.66;;;7.15;76.34
22333;BME280;11334;36.986;-121.936;2022-12-18T09:02:12;101208.03;;;7.29;75.65
22333;BME280;11334;36.986;-121.936;2022-12-18T09:04:38;101216.53;;;7.33;75.70
22333;BME280;11334;36.986;-121.936;2022-12-18T09:07:05;101210.69;;;7.29;75.67
22333;BME280;11334;36.986;-121.936;2022-12-18T09:09:31;101211.78;;;7.27;76.20
22333;BME280;11334;36.986;-121.936;2022-12-18T09:11:58;101200.63;;;7.23;75.34
22333;BME280;11334;36.986;-121.936;2022-12-18T09:14:24;101222.41;;;7.25;75.22
22333;BME280;11334;36.986;-121.936;2022-12-18T09:16:53;101233.78;;;7.26;75.25
22333;BME280;11334;36.986;-121.936;2022-12-18T09:19:20;101228.19;;;7.20;75.30
22333;BME280;11334;36.986;-121.936;2022-12-18T09:21:46;101207.13;;;7.09;74.75
22333;BME280;11334;36.986;-121.936;2022-12-18T09:24:14;101223.66;;;7.22;75.59
22333;BME280;11334;36.986;-121.936;2022-12-18T09:26:40;101219.84;;;7.04;75.82
22333;BME280;11334;36.986;-121.936;2022-12-18T09:29:07;101209.19;;;7.05;75.14
22333;BME280;11334;36.986;-121.936;2022-12-18T09:31:33;101201.66;;;7.01;75.29
22333;BME280;11334;36.986;-121.936;2022-12-18T09:34:00;101222.81;;;7.10;74.95
22333;BME280;11334;36.986;-121.936;2022-12-18T09:36:26;101239.00;;;7.17;74.97
22333;BME280;11334;36.986;-121.936;2022-12-18T09:38:52;101227.63;;;7.05;75.02
22333;BME280;11334;36.986;-121.936;2022-12-18T09:41:39;101246.63;;;7.20;75.45
22333;BME280;11334;36.986;-121.936;2022-12-18T09:44:41;101254.78;;;7.17;74.94
22333;BME280;11334;36.986;-121.936;2022-12-18T09:47:35;101215.09;;;6.76;76.58
22333;BME280;11334;36.986;-121.936;2022-12-18T09:50:29;101249.06;;;7.01;76.24
22333;BME280;11334;36.986;-121.936;2022-12-18T09:52:59;101246.94;;;6.95;75.62
22333;BME280;11334;36.986;-121.936;2022-12-18T09:55:37;101246.44;;;6.90;75.62
22333;BME280;11334;36.986;-121.936;2022-12-18T10:00:58;101240.84;;;6.73;77.35
22333;BME280;11334;36.986;-121.936;2022-12-18T10:03:24;101232.59;;;6.77;76.19
22333;BME280;11334;36.986;-121.936;2022-12-18T10:06:07;101242.63;;;6.83;76.19
22333;BME280;11334;36.986;-121.936;2022-12-18T10:14:09;101250.78;;;6.80;76.38
22333;BME280;11334;36.986;-121.936;2022-12-18T10:19:43;101245.97;;;6.74;76.32
22333;BME280;11334;36.986;-121.936;2022-12-18T10:22:30;101245.97;;;6.74;76.37
22333;BME280;11334;36.986;-121.936;2022-12-18T10:27:27;101226.34;;;6.78;76.07
22333;BME280;11334;36.986;-121.936;2022-12-18T10:29:53;101234.00;;;6.81;76.42
22333;BME280;11334;36.986;-121.936;2022-12-18T10:32:25;101234.84;;;6.82;75.68
22333;BME280;11334;36.986;-121.936;2022-12-18T10:34:55;101232.59;;;6.77;75.84
22333;BME280;11334;36.986;-121.936;2022-12-18T10:37:24;101237.00;;;6.66;76.21
22333;BME280;11334;36.986;-121.936;2022-12-18T10:40:08;101243.47;;;6.62;76.05
22333;BME280;11334;36.986;-121.936;2022-12-18T10:42:35;101236.75;;;6.47;77.73
22333;BME280;11334;36.986;-121.936;2022-12-18T10:45:16;101235.44;;;6.42;77.56
22333;BME280;11334;36.986;-121.936;2022-12-18T10:47:49;101240.25;;;6.59;76.72
22333;BME280;11334;36.986;-121.936;2022-12-18T10:52:54;101243.22;;;6.54;76.58
22333;BME280;11334;36.986;-121.936;2022-12-18T10:55:21;101241.44;;;6.55;76.84
22333;BME280;11334;36.986;-121.936;2022-12-18T10:57:48;101236.06;;;6.45;77.24
22333;BME280;11334;36.986;-121.936;2022-12-18T11:02:52;101248.84;;;6.50;78.00
22333;BME280;11334;36.986;-121.936;2022-12-18T11:07:55;101252.19;;;6.52;76.91
22333;BME280;11334;36.986;-121.936;2022-12-18T11:10:31;101246.22;;;6.39;77.34
22333;BME280;11334;36.986;-121.936;2022-12-18T11:13:16;101251.97;;;6.44;76.95
22333;BME280;11334;36.986;-121.936;2022-12-18T11:15:43;101246.69;;;6.33;76.36
22333;BME280;11334;36.986;-121.936;2022-12-18T11:18:32;101247.63;;;6.32;76.68
22333;BME280;11334;36.986;-121.936;2022-12-18T11:21:07;101248.59;;;6.31;77.57
22333;BME280;11334;36.986;-121.936;2022-12-18T11:23:35;101245.72;;;6.23;77.95
22333;BME280;11334;36.986;-121.936;2022-12-18T11:26:04;101253.53;;;6.35;77.16
22333;BME280;11334;36.986;-121.936;2022-12-18T11:36:44;101252.66;;;6.35;75.87
22333;BME280;11334;36.986;-121.936;2022-12-18T11:41:58;101247.16;;;6.27;76.66
22333;BME280;11334;36.986;-121.936;2022-12-18T11:47:21;101247.75;;;6.20;76.62
22333;BME280;11334;36.986;-121.936;2022-12-18T11:49:52;101244.75;;;6.13;76.56
22333;BME280;11334;36.986;-121.936;2022-12-18T11:52:19;101249.38;;;5.99;77.46
22333;BME280;11334;36.986;-121.936;2022-12-18T11:54:51;101247.13;;;6.05;78.07
22333;BME280;11334;36.986;-121.936;2022-12-18T11:57:34;101247.97;;;6.17;77.67
22333;BME280;11334;36.986;-121.936;2022-12-18T12:11:11;101243.31;;;6.09;77.16
22333;BME280;11334;36.986;-121.936;2022-12-18T12:19:28;101251.31;;;6.08;76.16
22333;BME280;11334;36.986;-121.936;2022-12-18T12:25:25;101238.78;;;5.77;77.60
22333;BME280;11334;36.986;-121.936;2022-12-18T12:28:09;101254.47;;;5.90;78.42
22333;BME280;11334;36.986;-121.936;2022-12-18T12:33:40;101250.69;;;5.94;77.37
22333;BME280;11334;36.986;-121.936;2022-12-18T12:38:57;101252.28;;;5.73;78.09
22333;BME280;11334;36.986;-121.936;2022-12-18T12:41:27;101239.81;;;5.64;78.48
22333;BME280;11334;36.986;-121.936;2022-12-18T12:44:39;101253.72;;;5.77;78.50
22333;BME280;11334;36.986;-121.936;2022-12-18T12:47:30;101245.38;;;5.83;77.57
22333;BME280;11334;36.986;-121.936;2022-12-18T12:50:00;101253.88;;;5.86;78.13
22333;BME280;11334;36.986;-121.936;2022-12-18T12:52:37;101247.41;;;5.79;77.84
22333;BME280;11334;36.986;-121.936;2022-12-18T12:55:17;101249.13;;;5.68;79.00
22333;BME280;11334;36.986;-121.936;2022-12-18T13:00:54;101249.09;;;5.57;79.10
22333;BME280;11334;36.986;-121.936;2022-12-18T13:06:40;101253.44;;;5.69;78.37
22333;BME280;11334;36.986;-121.936;2022-12-18T13:09:09;101253.44;;;5.69;77.81
22333;BME280;11334;36.986;-121.936;2022-12-18T13:11:40;101256.72;;;5.60;78.89
22333;BME280;11334;36.986;-121.936;2022-12-18T13:14:39;101257.22;;;5.65;78.62
22333;BME280;11334;36.986;-121.936;2022-12-18T13:17:21;101263.75;;;5.72;78.86
22333;BME280;11334;36.986;-121.936;2022-12-18T13:20:13;101265.13;;;5.65;77.30
22333;BME280;11334;36.986;-121.936;2022-12-18T13:22:43;101268.22;;;5.59;78.75
22333;BME280;11334;36.986;-121.936;2022-12-18T13:25:33;101274.41;;;5.58;78.92
22333;BME280;11334;36.986;-121.936;2022-12-18T13:28:12;101276.03;;;5.48;79.06
22333;BME280;11334;36.986;-121.936;2022-12-18T13:30:44;101278.66;;;5.48;78.91
22333;BME280;11334;36.986;-121.936;2022-12-18T13:41:01;101269.69;;;5.51;79.40
22333;BME280;11334;36.986;-121.936;2022-12-18T13:43:42;101232.72;;;5.31;78.45
22333;BME280;11334;36.986;-121.936;2022-12-18T13:49:01;101243.78;;;5.46;78.67
22333;BME280;11334;36.986;-121.936;2022-12-18T13:51:29;101246.28;;;5.48;78.54
22333;BME280;11334;36.986;-121.936;2022-12-18T13:53:58;101260.16;;;5.50;78.69
22333;BME280;11334;36.986;-121.936;2022-12-18T13:56:30;101263.63;;;5.50;78.95
22333;BME280;11334;36.986;-121.936;2022-12-18T13:59:19;101257.19;;;5.54;79.16
22333;BME280;11334;36.986;-121.936;2022-12-18T14:04:22;101255.72;;;5.50;78.80
22333;BME280;11334;36.986;-121.936;2022-12-18T14:06:55;101260.06;;;5.51;78.27
22333;BME280;11334;36.986;-121.936;2022-12-18T14:09:28;101261.44;;;5.44;78.21
22333;BME280;11334;36.986;-121.936;2022-12-18T14:11:56;101270.06;;;5.46;78.16
22333;BME280;11334;36.986;-121.936;2022-12-18T14:14:48;101269.09;;;5.47;77.75
22333;BME280;11334;36.986;-121.936;2022-12-18T14:17:16;101269.94;;;5.48;78.86
22333;BME280;11334;36.986;-121.936;2022-12-18T14:19:45;101269.19;;;5.46;78.17
22333;BME280;11334;36.986;-121.936;2022-12-18T14:22:24;101259.97;;;5.40;78.70
22333;BME280;11334;36.986;-121.936;2022-12-18T14:25:25;101266.06;;;5.41;78.70
22333;BME280;11334;36.986;-121.936;2022-12-18T14:30:43;101261.13;;;5.49;78.10